createdAt,value
2022-10-02T00:02:55.715Z,100.00
2022-10-02T00:06:03.284Z,100.00
2022-10-02T00:09:07.922Z,100.00
2022-10-02T00:12:18.474Z,100.00
2022-10-02T00:15:23.657Z,100.00
2022-10-02T00:18:30.341Z,100.00
2022-10-02T00:21:40.241Z,100.00
2022-10-02T00:24:52.003Z,100.00
2022-10-02T00:28:12.962Z,100.00
2022-10-02T00:31:27.681Z,100.00
2022-10-02T00:34:33.102Z,100.00
2022-10-02T00:37:35.613Z,100.00
2022-10-02T00:40:40.644Z,100.00
2022-10-02T00:43:43.146Z,100.00
2022-10-02T00:46:50.120Z,100.00
2022-10-02T00:49:58.600Z,100.00
2022-10-02T00:53:13.214Z,100.00
2022-10-02T00:56:15.815Z,100.00
2022-10-02T00:59:27.289Z,100.00
2022-10-02T01:02:43.563Z,100.00
2022-10-02T01:05:46.036Z,100.00
2022-10-02T01:08:48.536Z,100.00
2022-10-02T01:11:51.352Z,100.00
2022-10-02T01:14:53.886Z,100.00
2022-10-02T01:17:56.733Z,100.00
2022-10-02T01:21:02.212Z,100.00
2022-10-02T01:24:04.602Z,100.00
2022-10-02T01:27:07.196Z,100.00
2022-10-02T01:30:11.530Z,100.00
2022-10-02T01:33:14.785Z,100.00
2022-10-02T01:36:17.212Z,100.00
2022-10-02T01:39:19.721Z,100.00
2022-10-02T01:42:21.983Z,100.00
2022-10-02T01:45:32.986Z,100.00
2022-10-02T01:48:54.172Z,100.00
2022-10-02T01:52:21.081Z,100.00
2022-10-02T01:55:35.577Z,100.00
2022-10-02T01:59:16.511Z,100.00
2022-10-02T02:02:33.633Z,100.00
2022-10-02T02:05:45.287Z,100.00
2022-10-02T02:08:58.513Z,100.00
2022-10-02T02:12:15.196Z,100.00
2022-10-02T02:15:24.444Z,100.00
2022-10-02T02:18:27.071Z,100.00
2022-10-02T02:21:31.162Z,100.00
2022-10-02T02:24:41.873Z,100.00
2022-10-02T02:27:46.724Z,100.00
2022-10-02T02:30:50.676Z,100.00
2022-10-02T02:33:59.450Z,100.00
2022-10-02T02:37:05.043Z,100.00
2022-10-02T02:40:10.315Z,100.00
2022-10-02T02:43:22.566Z,100.00
2022-10-02T02:46:28.663Z,100.00
2022-10-02T02:49:36.752Z,100.00
2022-10-02T02:52:45.540Z,100.00
2022-10-02T02:55:52.090Z,100.00
2022-10-02T02:58:58.950Z,100.00
2022-10-02T03:02:01.808Z,100.00
2022-10-02T03:05:10.551Z,100.00
2022-10-02T03:08:19.143Z,100.00
2022-10-02T03:11:30.584Z,100.00
2022-10-02T03:14:45.717Z,100.00
2022-10-02T03:17:53.742Z,100.00
2022-10-02T03:21:06.535Z,100.00
2022-10-02T03:24:08.804Z,100.00
2022-10-02T03:27:14.466Z,100.00
2022-10-02T03:30:21.932Z,100.00
2022-10-02T03:33:25.664Z,100.00
2022-10-02T03:36:28.034Z,100.00
2022-10-02T03:39:30.544Z,100.00
2022-10-02T03:42:34.738Z,100.00
2022-10-02T03:45:50.929Z,100.00
2022-10-02T03:48:56.498Z,100.00
2022-10-02T03:51:59.191Z,100.00
2022-10-02T03:55:02.759Z,100.00
2022-10-02T03:58:15.975Z,100.00
2022-10-02T04:01:18.353Z,100.00
2022-10-02T04:04:30.417Z,100.00
2022-10-02T04:07:35.773Z,100.00
2022-10-02T04:10:44.876Z,100.00
2022-10-02T04:13:48.712Z,100.00
2022-10-02T04:16:52.087Z,100.00
2022-10-02T04:19:59.396Z,100.00
2022-10-02T04:23:22.235Z,100.00
2022-10-02T04:26:29.716Z,100.00
2022-10-02T04:29:36.549Z,100.00
2022-10-02T04:32:38.917Z,100.00
2022-10-02T04:36:07.419Z,100.00
2022-10-02T04:39:19.236Z,100.00
2022-10-02T04:42:26.365Z,100.00
2022-10-02T04:45:33.294Z,100.00
2022-10-02T04:48:38.666Z,100.00
2022-10-02T04:51:59.994Z,100.00
2022-10-02T04:55:15.895Z,100.00
2022-10-02T04:58:37.918Z,100.00
2022-10-02T05:01:56.817Z,100.00
2022-10-02T05:05:24.207Z,100.00
2022-10-02T05:08:26.840Z,100.00
2022-10-02T05:11:47.419Z,100.00
2022-10-02T05:15:08.699Z,100.00
2022-10-02T05:18:20.596Z,100.00
2022-10-02T05:21:34.915Z,100.00
2022-10-02T05:24:40.123Z,100.00
2022-10-02T05:28:08.464Z,100.00
2022-10-02T05:31:36.602Z,100.00
2022-10-02T05:34:57.582Z,100.00
2022-10-02T05:38:21.440Z,100.00
2022-10-02T05:41:31.449Z,100.00
2022-10-02T05:44:39.266Z,100.00
2022-10-02T05:47:46.324Z,100.00
2022-10-02T05:50:52.216Z,100.00
2022-10-02T05:54:01.216Z,100.00
2022-10-02T05:57:15.551Z,100.00
2022-10-02T06:00:24.225Z,100.00
2022-10-02T06:03:45.665Z,93.03
2022-10-02T06:06:51.617Z,92.52
2022-10-02T06:09:54.175Z,95.71
2022-10-02T06:13:13.168Z,97.24
2022-10-02T06:16:20.297Z,100.00
2022-10-02T06:19:27.159Z,90.27
2022-10-02T06:22:33.131Z,84.06
2022-10-02T06:25:41.924Z,85.67
2022-10-02T06:28:51.224Z,89.61
2022-10-02T06:32:05.084Z,91.34
2022-10-02T06:35:15.737Z,81.21
2022-10-02T06:38:36.386Z,57.18
2022-10-02T06:41:57.912Z,61.61
2022-10-02T06:45:03.770Z,75.02
2022-10-02T06:48:09.517Z,83.00
2022-10-02T06:51:21.149Z,88.50
2022-10-02T06:54:23.903Z,89.98
2022-10-02T06:57:34.645Z,91.83
2022-10-02T07:00:45.857Z,92.80
2022-10-02T07:04:04.634Z,92.78
2022-10-02T07:07:16.688Z,90.34
2022-10-02T07:10:22.956Z,91.41
2022-10-02T07:13:26.010Z,91.66
2022-10-02T07:16:54.881Z,92.44
2022-10-02T07:19:57.469Z,90.14
2022-10-02T07:22:59.803Z,91.28
2022-10-02T07:26:21.951Z,90.48
2022-10-02T07:29:43.132Z,89.03
2022-10-02T07:32:48.565Z,88.63
2022-10-02T07:35:59.678Z,88.25
2022-10-02T07:39:02.246Z,88.45
2022-10-02T07:42:10.756Z,86.67
2022-10-02T07:45:22.361Z,85.77
2022-10-02T07:48:40.368Z,84.78
2022-10-02T07:51:59.056Z,85.85
2022-10-02T07:55:01.421Z,83.52
2022-10-02T07:58:03.955Z,84.78
2022-10-02T08:01:11.218Z,83.62
2022-10-02T08:04:17.455Z,83.65
2022-10-02T08:07:20.027Z,81.90
2022-10-02T08:10:25.763Z,85.55
2022-10-02T08:13:31.404Z,81.19
2022-10-02T08:16:39.114Z,82.25
2022-10-02T08:19:45.398Z,80.78
2022-10-02T08:22:50.910Z,80.52
2022-10-02T08:25:56.079Z,78.56
2022-10-02T08:29:05.555Z,77.50
2022-10-02T08:32:11.956Z,77.22
2022-10-02T08:35:19.103Z,76.34
2022-10-02T08:38:40.427Z,75.00
2022-10-02T08:42:04.251Z,74.41
2022-10-02T08:45:12.586Z,74.66
2022-10-02T08:48:34.162Z,73.98
2022-10-02T08:51:48.689Z,73.04
2022-10-02T08:55:09.963Z,73.21
2022-10-02T08:58:38.860Z,71.71
2022-10-02T09:01:41.465Z,71.06
2022-10-02T09:05:19.412Z,69.12
2022-10-02T09:08:26.286Z,66.82
2022-10-02T09:11:28.528Z,66.12
2022-10-02T09:14:43.643Z,69.82
2022-10-02T09:17:48.196Z,68.15
2022-10-02T09:20:50.905Z,68.82
2022-10-02T09:23:55.162Z,69.24
2022-10-02T09:26:57.772Z,67.54
2022-10-02T09:30:19.234Z,67.90
2022-10-02T09:33:21.741Z,69.22
2022-10-02T09:36:24.835Z,67.81
2022-10-02T09:39:36.669Z,68.00
2022-10-02T09:42:55.063Z,67.06
2022-10-02T09:46:22.197Z,63.47
2022-10-02T09:49:32.052Z,62.97
2022-10-02T09:52:59.644Z,62.05
2022-10-02T09:56:11.058Z,61.63
2022-10-02T09:59:34.767Z,60.68
2022-10-02T10:02:46.638Z,62.57
2022-10-02T10:06:04.569Z,59.05
2022-10-02T10:09:25.898Z,59.42
2022-10-02T10:12:37.523Z,59.64
2022-10-02T10:15:40.661Z,57.60
2022-10-02T10:19:03.336Z,57.39
2022-10-02T10:22:27.169Z,57.23
2022-10-02T10:25:39.035Z,56.37
2022-10-02T10:29:04.810Z,57.20
2022-10-02T10:32:26.436Z,58.16
2022-10-02T10:35:28.775Z,56.42
2022-10-02T10:38:34.070Z,58.37
2022-10-02T10:41:39.758Z,59.77
2022-10-02T10:44:59.625Z,59.44
2022-10-02T10:48:05.121Z,57.98
2022-10-02T10:51:14.304Z,59.10
2022-10-02T10:54:21.451Z,58.75
2022-10-02T10:57:39.125Z,59.80
2022-10-02T11:00:58.618Z,61.16
2022-10-02T11:04:13.338Z,58.47
2022-10-02T11:07:24.949Z,58.28
2022-10-02T11:10:44.170Z,59.39
2022-10-02T11:14:08.607Z,57.01
2022-10-02T11:17:17.297Z,60.13
2022-10-02T11:20:38.418Z,58.27
2022-10-02T11:23:59.483Z,59.60
2022-10-02T11:27:20.930Z,59.60
2022-10-02T11:30:25.282Z,60.45
2022-10-02T11:33:30.954Z,60.77
2022-10-02T11:36:42.595Z,57.17
2022-10-02T11:39:47.939Z,55.71
2022-10-02T11:42:56.764Z,53.84
2022-10-02T11:46:21.582Z,55.15
2022-10-02T11:49:43.179Z,56.51
2022-10-02T11:52:48.244Z,56.73
2022-10-02T11:55:53.884Z,58.41
2022-10-02T11:58:56.114Z,59.87
2022-10-02T12:02:17.567Z,56.64
2022-10-02T12:05:30.641Z,57.01
2022-10-02T12:08:34.401Z,56.92
2022-10-02T12:11:44.143Z,57.15
2022-10-02T12:14:49.457Z,57.07
2022-10-02T12:18:11.168Z,58.98
2022-10-02T12:21:41.392Z,56.29
2022-10-02T12:25:02.792Z,57.50
2022-10-02T12:28:17.373Z,58.24
2022-10-02T12:31:26.510Z,60.33
2022-10-02T12:34:43.870Z,61.46
2022-10-02T12:37:49.510Z,61.42
2022-10-02T12:41:10.482Z,61.00
2022-10-02T12:44:24.672Z,61.65
2022-10-02T12:47:29.067Z,64.40
2022-10-02T12:50:41.433Z,64.66
2022-10-02T12:54:04.643Z,64.97
2022-10-02T12:57:07.371Z,64.05
2022-10-02T13:00:20.633Z,65.69
2022-10-02T13:03:42.162Z,68.26
2022-10-02T13:06:53.825Z,65.87
2022-10-02T13:10:02.322Z,67.46
2022-10-02T13:13:43.314Z,67.56
2022-10-02T13:16:49.024Z,69.68
2022-10-02T13:20:14.693Z,69.58
2022-10-02T13:23:32.056Z,69.49
2022-10-02T13:27:18.535Z,70.54
2022-10-02T13:30:23.094Z,71.12
2022-10-02T13:33:42.693Z,72.32
2022-10-02T13:36:45.447Z,71.49
2022-10-02T13:39:53.841Z,70.86
2022-10-02T13:43:15.275Z,72.00
2022-10-02T13:46:32.954Z,71.96
2022-10-02T13:49:56.245Z,74.56
2022-10-02T13:53:16.972Z,75.58
2022-10-02T13:56:28.839Z,73.62
2022-10-02T13:59:31.189Z,75.44
2022-10-02T14:02:34.030Z,76.23
2022-10-02T14:05:42.560Z,74.89
2022-10-02T14:08:44.817Z,73.85
2022-10-02T14:11:56.416Z,72.56
2022-10-02T14:14:58.647Z,73.16
2022-10-02T14:18:16.364Z,73.58
2022-10-02T14:21:21.621Z,73.49
2022-10-02T14:25:00.745Z,73.80
2022-10-02T14:28:06.052Z,76.30
2022-10-02T14:31:28.016Z,76.17
2022-10-02T14:34:49.320Z,76.62
2022-10-02T14:38:04.368Z,77.66
2022-10-02T14:41:19.651Z,77.00
2022-10-02T14:44:29.079Z,74.96
2022-10-02T14:47:34.365Z,75.78
2022-10-02T14:50:39.933Z,74.57
2022-10-02T14:53:52.548Z,74.21
2022-10-02T14:57:01.396Z,75.63
2022-10-02T15:00:24.701Z,76.05
2022-10-02T15:03:37.404Z,76.28
2022-10-02T15:06:42.647Z,77.81
2022-10-02T15:09:54.598Z,79.65
2022-10-02T15:13:09.848Z,79.95
2022-10-02T15:16:38.052Z,80.01
2022-10-02T15:19:49.723Z,81.74
2022-10-02T15:22:57.341Z,81.03
2022-10-02T15:26:19.922Z,83.33
2022-10-02T15:29:30.567Z,83.74
2022-10-02T15:32:39.681Z,83.71
2022-10-02T15:36:20.854Z,83.90
2022-10-02T15:39:28.932Z,85.51
2022-10-02T15:42:52.379Z,86.68
2022-10-02T15:46:27.761Z,87.07
2022-10-02T15:49:33.907Z,87.87
2022-10-02T15:52:42.413Z,87.69
2022-10-02T15:55:52.651Z,90.24
2022-10-02T15:58:59.612Z,89.99
2022-10-02T16:02:11.095Z,91.45
2022-10-02T16:05:20.785Z,91.96
2022-10-02T16:08:26.097Z,92.76
2022-10-02T16:11:34.613Z,93.29
2022-10-02T16:14:58.841Z,95.38
2022-10-02T16:18:04.124Z,95.56
2022-10-02T16:21:26.332Z,96.31
2022-10-02T16:24:31.810Z,96.24
2022-10-02T16:27:51.460Z,97.76
2022-10-02T16:31:01.892Z,98.65
2022-10-02T16:34:19.270Z,97.84
2022-10-02T16:37:21.822Z,97.91
2022-10-02T16:40:24.898Z,97.97
2022-10-02T16:43:39.532Z,97.62
2022-10-02T16:46:51.933Z,96.85
2022-10-02T16:50:00.595Z,96.09
2022-10-02T16:53:05.488Z,94.90
2022-10-02T16:56:15.091Z,94.06
2022-10-02T16:59:22.223Z,93.99
2022-10-02T17:02:47.156Z,93.75
2022-10-02T17:05:52.361Z,94.31
2022-10-02T17:09:00.998Z,94.30
2022-10-02T17:12:09.596Z,94.96
2022-10-02T17:15:15.291Z,96.37
2022-10-02T17:18:26.598Z,95.36
2022-10-02T17:21:39.191Z,96.27
2022-10-02T17:25:00.125Z,95.33
2022-10-02T17:28:17.229Z,94.85
2022-10-02T17:31:25.280Z,94.64
2022-10-02T17:34:46.104Z,96.10
2022-10-02T17:37:51.654Z,96.11
2022-10-02T17:41:02.561Z,95.65
2022-10-02T17:44:11.588Z,95.79
2022-10-02T17:47:25.795Z,95.53
2022-10-02T17:50:30.947Z,96.63
2022-10-02T17:54:18.301Z,95.57
2022-10-02T17:57:23.527Z,97.47
2022-10-02T18:00:30.697Z,98.50
2022-10-02T18:03:43.879Z,100.00
2022-10-02T18:07:05.227Z,97.32
2022-10-02T18:10:20.056Z,97.51
2022-10-02T18:13:45.021Z,95.85
2022-10-02T18:16:57.017Z,94.95
2022-10-02T18:19:59.299Z,94.86
2022-10-02T18:23:13.048Z,93.80
2022-10-02T18:26:34.279Z,93.75
2022-10-02T18:29:36.890Z,93.82
2022-10-02T18:32:48.523Z,94.07
2022-10-02T18:36:12.904Z,94.42
2022-10-02T18:39:23.406Z,94.52
2022-10-02T18:42:39.255Z,93.62
2022-10-02T18:45:50.952Z,93.62
2022-10-02T18:49:12.671Z,94.14
2022-10-02T18:52:27.946Z,94.39
2022-10-02T18:55:45.565Z,94.41
2022-10-02T18:59:06.817Z,95.87
2022-10-02T19:02:33.872Z,95.47
2022-10-02T19:05:55.383Z,95.12
2022-10-02T19:09:04.756Z,95.57
2022-10-02T19:12:13.979Z,95.41
2022-10-02T19:15:24.014Z,96.17
2022-10-02T19:18:27.831Z,96.11
2022-10-02T19:21:34.182Z,94.59
2022-10-02T19:24:38.505Z,94.96
2022-10-02T19:27:43.622Z,95.47
2022-10-02T19:30:52.354Z,94.46
2022-10-02T19:34:18.423Z,94.69
2022-10-02T19:37:22.953Z,95.39
2022-10-02T19:40:31.633Z,95.13
2022-10-02T19:43:35.549Z,95.79
2022-10-02T19:46:41.304Z,96.49
2022-10-02T19:49:46.632Z,95.94
2022-10-02T19:52:58.255Z,97.04
2022-10-02T19:56:03.418Z,97.28
2022-10-02T19:59:20.098Z,97.04
2022-10-02T20:02:43.501Z,97.86
2022-10-02T20:05:48.092Z,97.76
2022-10-02T20:09:01.128Z,98.15
2022-10-02T20:12:21.899Z,98.24
2022-10-02T20:15:48.397Z,98.57
2022-10-02T20:18:51.703Z,99.01
2022-10-02T20:21:54.918Z,99.61
2022-10-02T20:25:06.554Z,100.00
2022-10-02T20:28:17.235Z,100.00
2022-10-02T20:31:24.481Z,100.00
2022-10-02T20:34:31.591Z,100.00
2022-10-02T20:37:35.013Z,100.00
2022-10-02T20:40:39.821Z,100.00
2022-10-02T20:43:55.216Z,100.00
2022-10-02T20:47:03.284Z,99.97
2022-10-02T20:50:05.868Z,100.00
2022-10-02T20:53:23.424Z,100.00
2022-10-02T20:56:45.538Z,100.00
2022-10-02T20:59:51.029Z,100.00
2022-10-02T21:03:08.938Z,100.00
2022-10-02T21:06:29.999Z,100.00
2022-10-02T21:09:47.988Z,100.00
2022-10-02T21:12:55.718Z,100.00
2022-10-02T21:16:10.830Z,100.00
2022-10-02T21:19:23.544Z,100.00
2022-10-02T21:22:58.958Z,100.00
2022-10-02T21:26:04.218Z,100.00
2022-10-02T21:29:26.087Z,100.00
2022-10-02T21:32:40.919Z,100.00
2022-10-02T21:35:52.067Z,100.00
2022-10-02T21:39:28.261Z,100.00
2022-10-02T21:42:51.001Z,100.00
2022-10-02T21:46:13.944Z,100.00
2022-10-02T21:49:20.068Z,100.00
2022-10-02T21:52:41.533Z,100.00
2022-10-02T21:56:04.324Z,100.00
2022-10-02T21:59:06.594Z,100.00
2022-10-02T22:02:38.386Z,100.00
2022-10-02T22:05:43.865Z,100.00
2022-10-02T22:08:46.265Z,100.00
2022-10-02T22:11:57.462Z,100.00
2022-10-02T22:15:12.014Z,100.00
2022-10-02T22:18:26.750Z,100.00
2022-10-02T22:21:58.558Z,100.00
2022-10-02T22:25:19.998Z,100.00
2022-10-02T22:28:38.395Z,100.00
2022-10-02T22:31:53.250Z,100.00
2022-10-02T22:35:00.121Z,100.00
2022-10-02T22:38:09.194Z,100.00
2022-10-02T22:41:24.588Z,100.00
2022-10-02T22:44:39.395Z,100.00
2022-10-02T22:47:47.194Z,100.00
2022-10-02T22:50:52.825Z,100.00
2022-10-02T22:54:11.610Z,100.00
2022-10-02T22:57:20.799Z,100.00
2022-10-02T23:00:26.010Z,100.00
2022-10-02T23:03:36.545Z,100.00
2022-10-02T23:06:41.846Z,100.00
2022-10-02T23:09:49.110Z,100.00
2022-10-02T23:12:58.161Z,100.00
2022-10-02T23:16:03.729Z,100.00
2022-10-02T23:19:06.003Z,100.00
2022-10-02T23:22:23.438Z,100.00
2022-10-02T23:25:46.603Z,100.00
2022-10-02T23:28:54.696Z,100.00
2022-10-02T23:32:00.835Z,100.00
2022-10-02T23:35:15.551Z,100.00
2022-10-02T23:38:23.777Z,100.00
2022-10-02T23:41:46.970Z,100.00
2022-10-02T23:44:55.799Z,100.00
2022-10-02T23:48:05.900Z,100.00
2022-10-02T23:51:32.945Z,100.00
2022-10-02T23:54:35.597Z,100.00
2022-10-02T23:57:56.392Z,100.00
